createdAt,value
2023-08-08T00:01:44.164Z,13.81
2023-08-08T00:11:51.259Z,13.62
2023-08-08T00:21:56.677Z,13.43
2023-08-08T00:32:05.040Z,13.36
2023-08-08T00:42:11.747Z,13.38
2023-08-08T00:52:19.185Z,13.25
2023-08-08T01:02:26.419Z,13.08
2023-08-08T01:12:34.060Z,13.00
2023-08-08T01:22:48.064Z,12.96
2023-08-08T01:32:55.330Z,12.97
2023-08-08T01:43:02.924Z,13.05
2023-08-08T01:53:10.775Z,12.86
2023-08-08T02:03:17.753Z,12.78
2023-08-08T02:13:24.924Z,12.80
2023-08-08T02:23:31.782Z,12.81
2023-08-08T02:33:38.929Z,12.72
2023-08-08T02:43:46.481Z,12.60
2023-08-08T02:53:51.968Z,12.53
2023-08-08T03:03:58.998Z,12.48
2023-08-08T03:14:06.343Z,12.42
2023-08-08T03:24:13.470Z,12.35
2023-08-08T03:34:20.388Z,12.30
2023-08-08T03:44:27.854Z,12.40
2023-08-08T03:54:35.360Z,12.56
2023-08-08T04:04:41.823Z,12.65
2023-08-08T04:14:49.019Z,13.01
2023-08-08T04:24:56.320Z,13.41
2023-08-08T04:35:03.458Z,14.34
2023-08-08T04:45:11.236Z,15.39
2023-08-08T04:55:18.152Z,16.86
2023-08-08T05:05:25.487Z,16.83
2023-08-08T05:15:30.283Z,16.52
2023-08-08T05:25:37.655Z,18.07
2023-08-08T05:35:43.223Z,18.11
2023-08-08T05:45:50.194Z,17.19
2023-08-08T05:55:58.257Z,16.97
2023-08-08T06:06:06.043Z,16.81
2023-08-08T06:16:13.387Z,17.06
2023-08-08T06:26:22.514Z,18.48
2023-08-08T06:36:30.337Z,19.69
2023-08-08T06:46:37.666Z,20.25
2023-08-08T06:56:43.702Z,20.38
2023-08-08T07:06:51.011Z,19.53
2023-08-08T07:27:01.938Z,18.78
2023-08-08T07:37:09.337Z,18.45
2023-08-08T07:47:16.599Z,17.90
2023-08-08T07:57:23.781Z,17.71
2023-08-08T08:07:30.990Z,17.35
2023-08-08T08:17:38.352Z,17.70
2023-08-08T08:27:45.923Z,17.62
2023-08-08T08:37:52.997Z,17.28
2023-08-08T08:48:01.480Z,17.49
2023-08-08T08:58:06.213Z,17.17
2023-08-08T09:08:13.091Z,18.17
2023-08-08T09:18:19.700Z,19.30
2023-08-08T09:28:25.856Z,19.33
2023-08-08T09:38:32.082Z,19.77
2023-08-08T09:48:37.164Z,19.89
2023-08-08T09:58:46.194Z,20.38
2023-08-08T10:08:54.215Z,21.12
2023-08-08T10:19:00.539Z,21.37
2023-08-08T10:29:05.565Z,21.46
2023-08-08T10:49:21.497Z,21.16
2023-08-08T10:59:29.362Z,21.57
2023-08-08T11:09:34.988Z,21.37
2023-08-08T11:19:42.428Z,21.67
2023-08-08T11:29:53.988Z,21.90
2023-08-08T11:40:01.980Z,21.22
2023-08-08T11:50:11.991Z,21.34
2023-08-08T12:00:17.188Z,21.43
2023-08-08T12:10:21.727Z,21.33
2023-08-08T12:20:30.824Z,21.30
2023-08-08T12:30:37.718Z,21.11
2023-08-08T12:40:45.598Z,21.07
2023-08-08T12:50:52.550Z,20.44
2023-08-08T13:00:59.524Z,19.96
2023-08-08T13:11:07.185Z,20.00
2023-08-08T13:21:14.824Z,20.43
2023-08-08T13:31:21.788Z,20.49
2023-08-08T13:41:28.709Z,20.35
2023-08-08T13:51:35.709Z,20.08
2023-08-08T14:01:44.725Z,20.37
2023-08-08T14:11:52.464Z,20.30
2023-08-08T14:22:01.096Z,20.31
2023-08-08T14:32:08.443Z,20.37
2023-08-08T14:42:14.775Z,20.11
2023-08-08T14:52:20.653Z,19.90
2023-08-08T15:02:28.218Z,19.94
2023-08-08T15:12:34.793Z,20.28
2023-08-08T15:22:41.956Z,20.34
2023-08-08T15:32:49.499Z,20.21
2023-08-08T15:42:57.016Z,20.12
2023-08-08T15:53:03.059Z,20.18
2023-08-08T16:03:08.218Z,20.00
2023-08-08T16:13:14.360Z,19.67
2023-08-08T16:23:20.503Z,19.60
2023-08-08T16:33:27.582Z,19.47
2023-08-08T16:43:39.953Z,19.33
2023-08-08T16:53:46.947Z,19.22
2023-08-08T17:03:53.353Z,19.02
2023-08-08T17:14:01.322Z,18.75
2023-08-08T17:24:06.448Z,18.43
2023-08-08T17:34:14.775Z,18.16
2023-08-08T17:44:22.182Z,17.72
2023-08-08T17:54:29.727Z,17.36
2023-08-08T18:04:35.386Z,16.94
2023-08-08T18:14:42.256Z,16.40
2023-08-08T18:24:49.528Z,16.00
2023-08-08T18:34:56.825Z,15.85
2023-08-08T18:45:05.356Z,15.93
2023-08-08T18:55:10.346Z,15.83
2023-08-08T19:05:17.655Z,15.72
2023-08-08T19:15:25.952Z,15.81
2023-08-08T19:25:31.740Z,15.49
2023-08-08T19:35:37.584Z,15.18
2023-08-08T19:45:44.650Z,14.62
2023-08-08T19:55:51.481Z,13.99
2023-08-08T20:05:57.299Z,13.60
2023-08-08T20:16:03.852Z,13.45
2023-08-08T20:26:11.321Z,13.31
2023-08-08T20:36:19.364Z,13.21
2023-08-08T20:46:27.409Z,13.05
2023-08-08T20:56:35.185Z,13.03
2023-08-08T21:06:43.554Z,12.97
2023-08-08T21:16:51.160Z,12.93
2023-08-08T21:26:58.742Z,13.12
2023-08-08T21:37:05.463Z,13.28
2023-08-08T21:47:11.142Z,13.24
2023-08-08T21:57:16.995Z,13.07
2023-08-08T22:07:24.021Z,12.86
2023-08-08T22:17:31.343Z,12.83
2023-08-08T22:27:36.851Z,13.03
2023-08-08T22:37:42.548Z,13.20
2023-08-08T22:47:48.553Z,13.34
2023-08-08T22:57:56.028Z,13.40
2023-08-08T23:08:06.121Z,13.42
2023-08-08T23:18:13.162Z,13.42
2023-08-08T23:28:20.124Z,13.40
2023-08-08T23:38:25.702Z,13.51
2023-08-08T23:48:31.788Z,13.62
2023-08-08T23:58:37.986Z,13.68
